sensor_id;sensor_type;location;lat;lon;timestamp;P1;durP1;ratioP1;P2;durP2;ratioP2
11039;SDS011;5573;49.592;8.662;2023-05-09T00:00:01;422.17;;;398.13;;
11039;SDS011;5573;49.592;8.662;2023-05-09T00:02:50;412.27;;;389.33;;
11039;SDS011;5573;49.592;8.662;2023-05-09T00:05:40;419.33;;;395.50;;
11039;SDS011;5573;49.592;8.662;2023-05-09T00:08:29;422.58;;;398.10;;
11039;SDS011;5573;49.592;8.662;2023-05-09T00:11:17;417.98;;;394.17;;
11039;SDS011;5573;49.592;8.662;2023-05-09T00:14:05;400.50;;;378.08;;
11039;SDS011;5573;49.592;8.662;2023-05-09T00:16:54;393.50;;;370.98;;
11039;SDS011;5573;49.592;8.662;2023-05-09T00:19:43;444.50;;;418.52;;
11039;SDS011;5573;49.592;8.662;2023-05-09T00:22:31;399.70;;;376.73;;
11039;SDS011;5573;49.592;8.662;2023-05-09T00:25:20;414.95;;;391.23;;
11039;SDS011;5573;49.592;8.662;2023-05-09T00:28:08;443.63;;;418.70;;
11039;SDS011;5573;49.592;8.662;2023-05-09T00:30:57;416.38;;;392.13;;
11039;SDS011;5573;49.592;8.662;2023-05-09T00:33:45;410.02;;;386.83;;
11039;SDS011;5573;49.592;8.662;2023-05-09T00:36:33;444.35;;;418.75;;
11039;SDS011;5573;49.592;8.662;2023-05-09T00:39:21;416.92;;;393.38;;
11039;SDS011;5573;49.592;8.662;2023-05-09T00:42:10;405.67;;;382.63;;
11039;SDS011;5573;49.592;8.662;2023-05-09T00:44:59;426.00;;;401.13;;
11039;SDS011;5573;49.592;8.662;2023-05-09T00:47:47;396.77;;;374.33;;
11039;SDS011;5573;49.592;8.662;2023-05-09T00:50:35;413.30;;;389.77;;
11039;SDS011;5573;49.592;8.662;2023-05-09T00:53:24;436.38;;;411.92;;
11039;SDS011;5573;49.592;8.662;2023-05-09T00:56:12;430.95;;;406.75;;
11039;SDS011;5573;49.592;8.662;2023-05-09T00:59:03;440.52;;;415.17;;
11039;SDS011;5573;49.592;8.662;2023-05-09T01:01:52;404.42;;;381.83;;
11039;SDS011;5573;49.592;8.662;2023-05-09T01:04:40;425.55;;;400.60;;
11039;SDS011;5573;49.592;8.662;2023-05-09T01:07:32;413.38;;;390.35;;
11039;SDS011;5573;49.592;8.662;2023-05-09T01:10:25;416.33;;;392.65;;
11039;SDS011;5573;49.592;8.662;2023-05-09T01:13:22;420.42;;;395.80;;
11039;SDS011;5573;49.592;8.662;2023-05-09T01:16:16;415.17;;;391.30;;
11039;SDS011;5573;49.592;8.662;2023-05-09T01:19:21;415.70;;;391.88;;
11039;SDS011;5573;49.592;8.662;2023-05-09T01:22:23;432.88;;;407.98;;
11039;SDS011;5573;49.592;8.662;2023-05-09T01:25:26;433.15;;;408.55;;
11039;SDS011;5573;49.592;8.662;2023-05-09T01:28:34;428.25;;;403.17;;
11039;SDS011;5573;49.592;8.662;2023-05-09T01:31:32;425.38;;;401.30;;
11039;SDS011;5573;49.592;8.662;2023-05-09T01:34:25;422.02;;;397.80;;
11039;SDS011;5573;49.592;8.662;2023-05-09T01:37:15;429.13;;;404.42;;
11039;SDS011;5573;49.592;8.662;2023-05-09T01:40:06;416.50;;;392.50;;
11039;SDS011;5573;49.592;8.662;2023-05-09T01:42:59;425.27;;;400.67;;
11039;SDS011;5573;49.592;8.662;2023-05-09T01:45:50;412.42;;;388.63;;
11039;SDS011;5573;49.592;8.662;2023-05-09T01:48:41;401.10;;;378.02;;
11039;SDS011;5573;49.592;8.662;2023-05-09T01:51:31;407.85;;;384.17;;
11039;SDS011;5573;49.592;8.662;2023-05-09T01:54:21;423.52;;;398.80;;
11039;SDS011;5573;49.592;8.662;2023-05-09T01:57:12;386.15;;;364.13;;
11039;SDS011;5573;49.592;8.662;2023-05-09T02:00:01;403.52;;;380.50;;
11039;SDS011;5573;49.592;8.662;2023-05-09T02:02:58;413.92;;;390.30;;
11039;SDS011;5573;49.592;8.662;2023-05-09T02:05:49;422.10;;;398.33;;
11039;SDS011;5573;49.592;8.662;2023-05-09T02:08:38;401.85;;;378.98;;
11039;SDS011;5573;49.592;8.662;2023-05-09T02:11:27;413.80;;;390.45;;
11039;SDS011;5573;49.592;8.662;2023-05-09T02:14:15;419.77;;;396.67;;
11039;SDS011;5573;49.592;8.662;2023-05-09T02:17:04;398.17;;;375.58;;
11039;SDS011;5573;49.592;8.662;2023-05-09T02:19:55;400.90;;;379.17;;
11039;SDS011;5573;49.592;8.662;2023-05-09T02:22:44;407.45;;;384.85;;
11039;SDS011;5573;49.592;8.662;2023-05-09T02:25:33;410.17;;;386.60;;
11039;SDS011;5573;49.592;8.662;2023-05-09T02:28:22;417.42;;;393.95;;
11039;SDS011;5573;49.592;8.662;2023-05-09T02:31:12;416.90;;;393.05;;
11039;SDS011;5573;49.592;8.662;2023-05-09T02:34:03;400.40;;;378.58;;
11039;SDS011;5573;49.592;8.662;2023-05-09T02:36:53;410.13;;;387.17;;
11039;SDS011;5573;49.592;8.662;2023-05-09T02:39:43;385.80;;;364.08;;
11039;SDS011;5573;49.592;8.662;2023-05-09T02:42:31;359.08;;;339.35;;
11039;SDS011;5573;49.592;8.662;2023-05-09T02:45:19;388.30;;;366.48;;
11039;SDS011;5573;49.592;8.662;2023-05-09T02:48:07;398.77;;;376.75;;
11039;SDS011;5573;49.592;8.662;2023-05-09T02:50:55;400.48;;;378.00;;
11039;SDS011;5573;49.592;8.662;2023-05-09T02:53:44;381.88;;;360.23;;
11039;SDS011;5573;49.592;8.662;2023-05-09T02:56:33;374.90;;;354.30;;
11039;SDS011;5573;49.592;8.662;2023-05-09T02:59:21;369.35;;;348.70;;
11039;SDS011;5573;49.592;8.662;2023-05-09T03:02:10;393.75;;;371.25;;
11039;SDS011;5573;49.592;8.662;2023-05-09T03:04:58;349.77;;;330.10;;
11039;SDS011;5573;49.592;8.662;2023-05-09T03:07:46;395.17;;;373.30;;
11039;SDS011;5573;49.592;8.662;2023-05-09T03:10:36;397.30;;;375.10;;
11039;SDS011;5573;49.592;8.662;2023-05-09T03:13:25;386.55;;;364.70;;
11039;SDS011;5573;49.592;8.662;2023-05-09T03:16:16;374.98;;;354.38;;
11039;SDS011;5573;49.592;8.662;2023-05-09T03:19:05;398.13;;;375.75;;
11039;SDS011;5573;49.592;8.662;2023-05-09T03:21:53;375.35;;;354.65;;
11039;SDS011;5573;49.592;8.662;2023-05-09T03:24:42;372.33;;;351.98;;
11039;SDS011;5573;49.592;8.662;2023-05-09T03:27:30;380.48;;;358.80;;
11039;SDS011;5573;49.592;8.662;2023-05-09T03:30:20;381.42;;;359.90;;
11039;SDS011;5573;49.592;8.662;2023-05-09T03:33:10;380.00;;;358.35;;
11039;SDS011;5573;49.592;8.662;2023-05-09T03:35:58;386.75;;;364.90;;
11039;SDS011;5573;49.592;8.662;2023-05-09T03:38:46;390.05;;;368.55;;
11039;SDS011;5573;49.592;8.662;2023-05-09T03:41:35;376.27;;;355.38;;
11039;SDS011;5573;49.592;8.662;2023-05-09T03:44:25;372.27;;;351.05;;
11039;SDS011;5573;49.592;8.662;2023-05-09T03:47:14;373.48;;;353.00;;
11039;SDS011;5573;49.592;8.662;2023-05-09T03:50:03;380.80;;;359.10;;
11039;SDS011;5573;49.592;8.662;2023-05-09T03:52:53;356.77;;;337.27;;
11039;SDS011;5573;49.592;8.662;2023-05-09T03:55:42;371.55;;;350.60;;
11039;SDS011;5573;49.592;8.662;2023-05-09T03:58:32;388.35;;;366.42;;
11039;SDS011;5573;49.592;8.662;2023-05-09T04:01:20;379.17;;;358.17;;
11039;SDS011;5573;49.592;8.662;2023-05-09T04:04:10;371.20;;;350.17;;
11039;SDS011;5573;49.592;8.662;2023-05-09T04:06:58;386.02;;;364.05;;
11039;SDS011;5573;49.592;8.662;2023-05-09T04:09:46;385.67;;;364.27;;
11039;SDS011;5573;49.592;8.662;2023-05-09T04:12:35;393.95;;;371.83;;
11039;SDS011;5573;49.592;8.662;2023-05-09T04:15:23;368.52;;;347.88;;
11039;SDS011;5573;49.592;8.662;2023-05-09T04:18:12;398.30;;;376.08;;
11039;SDS011;5573;49.592;8.662;2023-05-09T04:21:02;372.27;;;351.05;;
11039;SDS011;5573;49.592;8.662;2023-05-09T04:23:51;387.05;;;364.25;;
11039;SDS011;5573;49.592;8.662;2023-05-09T04:26:46;399.77;;;377.17;;
11039;SDS011;5573;49.592;8.662;2023-05-09T04:29:39;392.48;;;370.15;;
11039;SDS011;5573;49.592;8.662;2023-05-09T04:32:28;397.48;;;374.98;;
11039;SDS011;5573;49.592;8.662;2023-05-09T04:35:17;395.13;;;372.85;;
11039;SDS011;5573;49.592;8.662;2023-05-09T04:38:09;399.15;;;376.45;;
11039;SDS011;5573;49.592;8.662;2023-05-09T04:40:59;395.58;;;373.38;;
11039;SDS011;5573;49.592;8.662;2023-05-09T04:43:47;386.55;;;364.75;;
11039;SDS011;5573;49.592;8.662;2023-05-09T04:46:35;414.17;;;390.40;;
11039;SDS011;5573;49.592;8.662;2023-05-09T04:49:23;433.77;;;409.55;;
11039;SDS011;5573;49.592;8.662;2023-05-09T04:52:12;388.08;;;366.15;;
11039;SDS011;5573;49.592;8.662;2023-05-09T04:55:01;399.02;;;376.35;;
11039;SDS011;5573;49.592;8.662;2023-05-09T04:57:55;403.40;;;380.60;;
11039;SDS011;5573;49.592;8.662;2023-05-09T05:00:43;408.50;;;384.75;;
11039;SDS011;5573;49.592;8.662;2023-05-09T05:03:33;402.63;;;379.52;;
11039;SDS011;5573;49.592;8.662;2023-05-09T05:06:21;404.05;;;381.08;;
11039;SDS011;5573;49.592;8.662;2023-05-09T05:09:09;404.05;;;380.85;;
11039;SDS011;5573;49.592;8.662;2023-05-09T05:12:00;394.00;;;371.58;;
11039;SDS011;5573;49.592;8.662;2023-05-09T05:14:51;412.00;;;388.27;;
11039;SDS011;5573;49.592;8.662;2023-05-09T05:17:41;430.40;;;406.40;;
11039;SDS011;5573;49.592;8.662;2023-05-09T05:20:29;407.98;;;384.42;;
11039;SDS011;5573;49.592;8.662;2023-05-09T05:23:18;434.25;;;409.55;;
11039;SDS011;5573;49.592;8.662;2023-05-09T05:26:08;424.73;;;400.33;;
11039;SDS011;5573;49.592;8.662;2023-05-09T05:28:58;415.33;;;391.33;;
11039;SDS011;5573;49.592;8.662;2023-05-09T05:31:46;421.75;;;397.58;;
11039;SDS011;5573;49.592;8.662;2023-05-09T05:34:34;411.00;;;386.95;;
11039;SDS011;5573;49.592;8.662;2023-05-09T05:37:25;422.80;;;398.45;;
11039;SDS011;5573;49.592;8.662;2023-05-09T05:40:14;420.55;;;396.45;;
11039;SDS011;5573;49.592;8.662;2023-05-09T05:43:05;431.83;;;406.73;;
11039;SDS011;5573;49.592;8.662;2023-05-09T05:45:56;421.00;;;397.33;;
11039;SDS011;5573;49.592;8.662;2023-05-09T05:48:47;440.80;;;415.17;;
11039;SDS011;5573;49.592;8.662;2023-05-09T05:51:35;405.08;;;381.55;;
11039;SDS011;5573;49.592;8.662;2023-05-09T05:54:25;404.92;;;381.60;;
11039;SDS011;5573;49.592;8.662;2023-05-09T05:57:13;419.45;;;395.23;;
11039;SDS011;5573;49.592;8.662;2023-05-09T06:00:02;437.02;;;412.60;;
11039;SDS011;5573;49.592;8.662;2023-05-09T06:03:00;409.20;;;385.80;;
11039;SDS011;5573;49.592;8.662;2023-05-09T06:06:00;432.90;;;407.52;;
11039;SDS011;5573;49.592;8.662;2023-05-09T06:08:48;431.08;;;406.65;;
11039;SDS011;5573;49.592;8.662;2023-05-09T06:11:36;412.85;;;389.23;;
11039;SDS011;5573;49.592;8.662;2023-05-09T06:14:25;429.50;;;404.98;;
11039;SDS011;5573;49.592;8.662;2023-05-09T06:17:13;417.15;;;393.80;;
11039;SDS011;5573;49.592;8.662;2023-05-09T06:20:02;393.52;;;371.20;;
11039;SDS011;5573;49.592;8.662;2023-05-09T06:22:51;431.52;;;407.40;;
11039;SDS011;5573;49.592;8.662;2023-05-09T06:25:39;426.17;;;401.83;;
11039;SDS011;5573;49.592;8.662;2023-05-09T06:28:27;418.80;;;395.27;;
11039;SDS011;5573;49.592;8.662;2023-05-09T06:31:15;433.33;;;408.42;;
11039;SDS011;5573;49.592;8.662;2023-05-09T06:34:03;428.05;;;403.63;;
11039;SDS011;5573;49.592;8.662;2023-05-09T06:36:53;402.45;;;379.90;;
11039;SDS011;5573;49.592;8.662;2023-05-09T06:39:41;451.02;;;425.58;;
11039;SDS011;5573;49.592;8.662;2023-05-09T06:42:29;443.52;;;418.73;;
11039;SDS011;5573;49.592;8.662;2023-05-09T06:45:19;431.52;;;407.42;;
11039;SDS011;5573;49.592;8.662;2023-05-09T06:48:07;421.00;;;397.77;;
11039;SDS011;5573;49.592;8.662;2023-05-09T06:50:55;429.33;;;404.33;;
11039;SDS011;5573;49.592;8.662;2023-05-09T06:53:45;400.52;;;377.48;;
11039;SDS011;5573;49.592;8.662;2023-05-09T06:56:32;442.27;;;417.42;;
11039;SDS011;5573;49.592;8.662;2023-05-09T06:59:21;435.85;;;411.35;;
11039;SDS011;5573;49.592;8.662;2023-05-09T07:02:09;437.77;;;412.67;;
11039;SDS011;5573;49.592;8.662;2023-05-09T07:04:57;447.83;;;422.08;;
11039;SDS011;5573;49.592;8.662;2023-05-09T07:07:45;454.45;;;428.23;;
11039;SDS011;5573;49.592;8.662;2023-05-09T07:10:35;451.15;;;425.08;;
11039;SDS011;5573;49.592;8.662;2023-05-09T07:13:24;459.48;;;432.48;;
11039;SDS011;5573;49.592;8.662;2023-05-09T07:16:12;452.00;;;426.20;;
11039;SDS011;5573;49.592;8.662;2023-05-09T07:19:00;450.80;;;424.50;;
11039;SDS011;5573;49.592;8.662;2023-05-09T07:21:49;457.00;;;430.08;;
11039;SDS011;5573;49.592;8.662;2023-05-09T07:24:37;464.40;;;437.63;;
11039;SDS011;5573;49.592;8.662;2023-05-09T07:27:26;464.23;;;437.25;;
11039;SDS011;5573;49.592;8.662;2023-05-09T07:30:15;440.10;;;414.20;;
11039;SDS011;5573;49.592;8.662;2023-05-09T07:33:03;464.67;;;438.27;;
11039;SDS011;5573;49.592;8.662;2023-05-09T07:35:52;449.58;;;423.45;;
11039;SDS011;5573;49.592;8.662;2023-05-09T07:38:40;463.00;;;435.67;;
11039;SDS011;5573;49.592;8.662;2023-05-09T07:41:28;463.42;;;437.15;;
11039;SDS011;5573;49.592;8.662;2023-05-09T07:44:17;487.95;;;460.17;;
11039;SDS011;5573;49.592;8.662;2023-05-09T07:47:05;485.85;;;457.13;;
11039;SDS011;5573;49.592;8.662;2023-05-09T07:49:54;475.92;;;449.15;;
11039;SDS011;5573;49.592;8.662;2023-05-09T07:52:43;457.15;;;431.33;;
11039;SDS011;5573;49.592;8.662;2023-05-09T07:55:32;476.23;;;449.05;;
11039;SDS011;5573;49.592;8.662;2023-05-09T07:58:20;463.27;;;436.75;;
11039;SDS011;5573;49.592;8.662;2023-05-09T08:01:09;429.35;;;404.58;;
11039;SDS011;5573;49.592;8.662;2023-05-09T08:03:57;434.48;;;409.38;;
11039;SDS011;5573;49.592;8.662;2023-05-09T08:06:47;463.63;;;437.15;;
11039;SDS011;5573;49.592;8.662;2023-05-09T08:09:35;463.90;;;437.45;;
11039;SDS011;5573;49.592;8.662;2023-05-09T08:12:23;455.60;;;428.88;;
11039;SDS011;5573;49.592;8.662;2023-05-09T08:15:12;464.58;;;437.92;;
11039;SDS011;5573;49.592;8.662;2023-05-09T08:18:03;489.35;;;461.55;;
11039;SDS011;5573;49.592;8.662;2023-05-09T08:20:52;455.38;;;429.50;;
11039;SDS011;5573;49.592;8.662;2023-05-09T08:23:40;474.85;;;447.30;;
11039;SDS011;5573;49.592;8.662;2023-05-09T08:26:28;468.05;;;440.60;;
11039;SDS011;5573;49.592;8.662;2023-05-09T08:29:16;483.05;;;455.42;;
11039;SDS011;5573;49.592;8.662;2023-05-09T08:32:04;480.25;;;451.33;;
11039;SDS011;5573;49.592;8.662;2023-05-09T08:34:53;491.88;;;463.05;;
11039;SDS011;5573;49.592;8.662;2023-05-09T08:37:42;466.08;;;439.17;;
11039;SDS011;5573;49.592;8.662;2023-05-09T08:40:30;468.17;;;439.80;;
11039;SDS011;5573;49.592;8.662;2023-05-09T08:43:22;451.63;;;424.52;;
11039;SDS011;5573;49.592;8.662;2023-05-09T08:46:11;438.70;;;413.27;;
11039;SDS011;5573;49.592;8.662;2023-05-09T08:49:00;464.88;;;438.15;;
11039;SDS011;5573;49.592;8.662;2023-05-09T08:51:53;460.48;;;433.00;;
11039;SDS011;5573;49.592;8.662;2023-05-09T08:54:41;403.00;;;379.60;;
11039;SDS011;5573;49.592;8.662;2023-05-09T08:57:30;433.77;;;408.83;;
11039;SDS011;5573;49.592;8.662;2023-05-09T09:00:19;446.92;;;420.67;;
11039;SDS011;5573;49.592;8.662;2023-05-09T09:03:08;438.10;;;412.52;;
11039;SDS011;5573;49.592;8.662;2023-05-09T09:05:57;454.52;;;427.65;;
11039;SDS011;5573;49.592;8.662;2023-05-09T09:08:47;455.13;;;428.15;;
11039;SDS011;5573;49.592;8.662;2023-05-09T09:11:37;444.85;;;418.30;;
11039;SDS011;5573;49.592;8.662;2023-05-09T09:14:27;467.17;;;440.08;;
11039;SDS011;5573;49.592;8.662;2023-05-09T09:17:20;469.90;;;442.45;;
11039;SDS011;5573;49.592;8.662;2023-05-09T09:20:13;457.08;;;430.98;;
11039;SDS011;5573;49.592;8.662;2023-05-09T09:23:03;429.17;;;404.20;;
11039;SDS011;5573;49.592;8.662;2023-05-09T09:25:58;423.50;;;399.42;;
11039;SDS011;5573;49.592;8.662;2023-05-09T09:28:47;439.25;;;414.02;;
11039;SDS011;5573;49.592;8.662;2023-05-09T09:31:35;436.73;;;411.75;;
11039;SDS011;5573;49.592;8.662;2023-05-09T09:34:23;449.40;;;423.08;;
11039;SDS011;5573;49.592;8.662;2023-05-09T09:37:20;456.42;;;429.52;;
11039;SDS011;5573;49.592;8.662;2023-05-09T09:40:09;426.83;;;402.02;;
11039;SDS011;5573;49.592;8.662;2023-05-09T09:42:59;450.80;;;424.25;;
11039;SDS011;5573;49.592;8.662;2023-05-09T09:45:47;481.15;;;453.25;;
11039;SDS011;5573;49.592;8.662;2023-05-09T09:48:37;466.73;;;439.42;;
11039;SDS011;5573;49.592;8.662;2023-05-09T09:51:26;466.33;;;439.50;;
11039;SDS011;5573;49.592;8.662;2023-05-09T09:54:15;447.75;;;422.02;;
11039;SDS011;5573;49.592;8.662;2023-05-09T09:57:03;434.25;;;408.85;;
11039;SDS011;5573;49.592;8.662;2023-05-09T09:59:58;438.25;;;412.45;;
11039;SDS011;5573;49.592;8.662;2023-05-09T10:02:46;433.90;;;409.23;;
11039;SDS011;5573;49.592;8.662;2023-05-09T10:05:35;432.27;;;407.63;;
11039;SDS011;5573;49.592;8.662;2023-05-09T10:08:26;420.73;;;396.75;;
11039;SDS011;5573;49.592;8.662;2023-05-09T10:11:14;403.92;;;380.95;;
11039;SDS011;5573;49.592;8.662;2023-05-09T10:14:02;401.80;;;378.95;;
11039;SDS011;5573;49.592;8.662;2023-05-09T10:16:53;391.80;;;370.08;;
11039;SDS011;5573;49.592;8.662;2023-05-09T10:19:43;379.85;;;358.83;;
11039;SDS011;5573;49.592;8.662;2023-05-09T10:22:33;359.25;;;339.10;;
11039;SDS011;5573;49.592;8.662;2023-05-09T10:25:24;362.90;;;342.38;;
11039;SDS011;5573;49.592;8.662;2023-05-09T10:28:21;349.08;;;329.42;;
11039;SDS011;5573;49.592;8.662;2023-05-09T10:31:14;341.17;;;322.42;;
11039;SDS011;5573;49.592;8.662;2023-05-09T10:34:09;352.27;;;333.02;;
11039;SDS011;5573;49.592;8.662;2023-05-09T10:36:58;355.83;;;335.73;;
11039;SDS011;5573;49.592;8.662;2023-05-09T10:39:47;355.67;;;335.77;;
11039;SDS011;5573;49.592;8.662;2023-05-09T10:42:38;365.25;;;345.02;;
11039;SDS011;5573;49.592;8.662;2023-05-09T10:45:27;354.35;;;334.15;;
11039;SDS011;5573;49.592;8.662;2023-05-09T10:48:15;358.92;;;339.20;;
11039;SDS011;5573;49.592;8.662;2023-05-09T10:51:06;353.23;;;334.10;;
11039;SDS011;5573;49.592;8.662;2023-05-09T10:53:55;324.52;;;306.65;;
11039;SDS011;5573;49.592;8.662;2023-05-09T10:56:43;358.73;;;338.63;;
11039;SDS011;5573;49.592;8.662;2023-05-09T10:59:33;353.55;;;333.58;;
11039;SDS011;5573;49.592;8.662;2023-05-09T11:02:23;339.25;;;320.27;;
11039;SDS011;5573;49.592;8.662;2023-05-09T11:05:15;348.38;;;328.98;;
11039;SDS011;5573;49.592;8.662;2023-05-09T11:08:18;333.80;;;315.23;;
11039;SDS011;5573;49.592;8.662;2023-05-09T11:11:07;301.98;;;285.77;;
11039;SDS011;5573;49.592;8.662;2023-05-09T11:14:23;317.17;;;299.88;;
11039;SDS011;5573;49.592;8.662;2023-05-09T11:17:26;324.33;;;306.70;;
11039;SDS011;5573;49.592;8.662;2023-05-09T11:20:15;326.33;;;308.48;;
11039;SDS011;5573;49.592;8.662;2023-05-09T11:23:03;301.27;;;285.08;;
11039;SDS011;5573;49.592;8.662;2023-05-09T11:25:58;311.63;;;294.55;;
11039;SDS011;5573;49.592;8.662;2023-05-09T11:28:52;317.27;;;300.40;;
11039;SDS011;5573;49.592;8.662;2023-05-09T11:34:51;313.17;;;296.00;;
11039;SDS011;5573;49.592;8.662;2023-05-09T11:37:52;293.60;;;277.23;;
11039;SDS011;5573;49.592;8.662;2023-05-09T11:40:47;313.63;;;296.55;;
11039;SDS011;5573;49.592;8.662;2023-05-09T11:43:36;302.70;;;286.42;;
11039;SDS011;5573;49.592;8.662;2023-05-09T11:46:25;298.25;;;282.20;;
11039;SDS011;5573;49.592;8.662;2023-05-09T11:49:14;319.38;;;301.95;;
11039;SDS011;5573;49.592;8.662;2023-05-09T11:52:03;333.83;;;315.50;;
11039;SDS011;5573;49.592;8.662;2023-05-09T11:54:51;330.42;;;312.52;;
11039;SDS011;5573;49.592;8.662;2023-05-09T11:57:40;323.33;;;305.42;;
11039;SDS011;5573;49.592;8.662;2023-05-09T12:00:31;341.02;;;322.05;;
11039;SDS011;5573;49.592;8.662;2023-05-09T12:03:19;344.45;;;325.85;;
11039;SDS011;5573;49.592;8.662;2023-05-09T12:06:08;370.95;;;350.23;;
11039;SDS011;5573;49.592;8.662;2023-05-09T12:08:56;358.95;;;339.00;;
11039;SDS011;5573;49.592;8.662;2023-05-09T12:11:47;342.55;;;323.60;;
11039;SDS011;5573;49.592;8.662;2023-05-09T12:14:36;346.35;;;327.38;;
11039;SDS011;5573;49.592;8.662;2023-05-09T12:17:26;355.70;;;336.02;;
11039;SDS011;5573;49.592;8.662;2023-05-09T12:20:15;338.00;;;319.27;;
11039;SDS011;5573;49.592;8.662;2023-05-09T12:23:03;347.98;;;328.50;;
11039;SDS011;5573;49.592;8.662;2023-05-09T12:25:51;349.92;;;330.25;;
11039;SDS011;5573;49.592;8.662;2023-05-09T12:28:40;347.27;;;328.45;;
11039;SDS011;5573;49.592;8.662;2023-05-09T12:31:30;339.02;;;320.85;;
11039;SDS011;5573;49.592;8.662;2023-05-09T12:34:19;321.25;;;303.40;;
11039;SDS011;5573;49.592;8.662;2023-05-09T12:37:12;321.92;;;304.30;;
11039;SDS011;5573;49.592;8.662;2023-05-09T12:40:04;340.35;;;321.67;;
11039;SDS011;5573;49.592;8.662;2023-05-09T12:42:55;325.83;;;308.00;;
11039;SDS011;5573;49.592;8.662;2023-05-09T12:45:50;328.67;;;310.95;;
11039;SDS011;5573;49.592;8.662;2023-05-09T12:48:39;340.08;;;322.00;;
11039;SDS011;5573;49.592;8.662;2023-05-09T12:51:29;322.50;;;304.98;;
11039;SDS011;5573;49.592;8.662;2023-05-09T12:54:18;324.38;;;306.83;;
11039;SDS011;5573;49.592;8.662;2023-05-09T12:57:19;338.58;;;319.67;;
11039;SDS011;5573;49.592;8.662;2023-05-09T13:00:08;307.35;;;290.48;;
11039;SDS011;5573;49.592;8.662;2023-05-09T13:02:57;324.23;;;306.65;;
11039;SDS011;5573;49.592;8.662;2023-05-09T13:05:52;311.88;;;294.88;;
11039;SDS011;5573;49.592;8.662;2023-05-09T13:08:42;311.35;;;294.45;;
11039;SDS011;5573;49.592;8.662;2023-05-09T13:11:30;332.42;;;314.70;;
11039;SDS011;5573;49.592;8.662;2023-05-09T13:14:21;315.63;;;298.77;;
11039;SDS011;5573;49.592;8.662;2023-05-09T13:17:09;303.77;;;287.38;;
11039;SDS011;5573;49.592;8.662;2023-05-09T13:19:57;326.48;;;308.83;;
11039;SDS011;5573;49.592;8.662;2023-05-09T13:26:11;316.55;;;299.27;;
11039;SDS011;5573;49.592;8.662;2023-05-09T13:28:59;308.67;;;291.95;;
11039;SDS011;5573;49.592;8.662;2023-05-09T13:31:47;304.27;;;287.65;;
11039;SDS011;5573;49.592;8.662;2023-05-09T13:34:35;315.52;;;298.88;;
11039;SDS011;5573;49.592;8.662;2023-05-09T13:37:23;294.15;;;278.58;;
11039;SDS011;5573;49.592;8.662;2023-05-09T13:40:13;295.45;;;279.70;;
11039;SDS011;5573;49.592;8.662;2023-05-09T13:43:03;298.23;;;281.92;;
11039;SDS011;5573;49.592;8.662;2023-05-09T13:45:51;305.98;;;289.67;;
11039;SDS011;5573;49.592;8.662;2023-05-09T13:48:39;308.00;;;291.25;;
11039;SDS011;5573;49.592;8.662;2023-05-09T13:51:27;299.83;;;283.73;;
11039;SDS011;5573;49.592;8.662;2023-05-09T13:54:15;321.00;;;303.33;;
11039;SDS011;5573;49.592;8.662;2023-05-09T13:57:05;347.25;;;328.52;;
11039;SDS011;5573;49.592;8.662;2023-05-09T13:59:55;367.80;;;347.85;;
11039;SDS011;5573;49.592;8.662;2023-05-09T14:02:44;329.50;;;311.50;;
11039;SDS011;5573;49.592;8.662;2023-05-09T14:05:32;351.73;;;332.27;;
11039;SDS011;5573;49.592;8.662;2023-05-09T14:08:20;355.90;;;336.15;;
11039;SDS011;5573;49.592;8.662;2023-05-09T14:11:09;342.85;;;323.95;;
11039;SDS011;5573;49.592;8.662;2023-05-09T14:13:57;343.83;;;324.95;;
11039;SDS011;5573;49.592;8.662;2023-05-09T14:16:47;319.63;;;302.20;;
11039;SDS011;5573;49.592;8.662;2023-05-09T14:19:35;327.42;;;310.08;;
11039;SDS011;5573;49.592;8.662;2023-05-09T14:22:23;315.85;;;298.77;;
11039;SDS011;5573;49.592;8.662;2023-05-09T14:25:12;316.65;;;299.83;;
11039;SDS011;5573;49.592;8.662;2023-05-09T14:27:59;313.35;;;296.73;;
11039;SDS011;5573;49.592;8.662;2023-05-09T14:30:48;282.17;;;267.05;;
11039;SDS011;5573;49.592;8.662;2023-05-09T14:33:37;295.90;;;280.17;;
11039;SDS011;5573;49.592;8.662;2023-05-09T14:36:26;277.15;;;262.25;;
11039;SDS011;5573;49.592;8.662;2023-05-09T14:39:14;294.42;;;278.88;;
11039;SDS011;5573;49.592;8.662;2023-05-09T14:42:02;271.25;;;256.77;;
11039;SDS011;5573;49.592;8.662;2023-05-09T14:44:51;287.23;;;271.77;;
11039;SDS011;5573;49.592;8.662;2023-05-09T14:47:39;272.00;;;257.65;;
11039;SDS011;5573;49.592;8.662;2023-05-09T14:50:29;283.20;;;268.35;;
11039;SDS011;5573;49.592;8.662;2023-05-09T14:53:18;282.45;;;267.63;;
11039;SDS011;5573;49.592;8.662;2023-05-09T14:56:06;296.48;;;280.60;;
11039;SDS011;5573;49.592;8.662;2023-05-09T14:58:55;327.23;;;309.73;;
11039;SDS011;5573;49.592;8.662;2023-05-09T15:01:43;347.33;;;328.75;;
11039;SDS011;5573;49.592;8.662;2023-05-09T15:04:32;338.02;;;319.70;;
11039;SDS011;5573;49.592;8.662;2023-05-09T15:07:21;330.38;;;312.25;;
11039;SDS011;5573;49.592;8.662;2023-05-09T15:10:10;319.60;;;302.63;;
11039;SDS011;5573;49.592;8.662;2023-05-09T15:12:58;327.95;;;310.13;;
11039;SDS011;5573;49.592;8.662;2023-05-09T15:15:50;314.40;;;297.67;;
11039;SDS011;5573;49.592;8.662;2023-05-09T15:18:38;349.63;;;330.42;;
11039;SDS011;5573;49.592;8.662;2023-05-09T15:21:30;348.73;;;329.52;;
11039;SDS011;5573;49.592;8.662;2023-05-09T15:24:21;358.23;;;338.55;;
11039;SDS011;5573;49.592;8.662;2023-05-09T15:27:09;359.88;;;340.27;;
11039;SDS011;5573;49.592;8.662;2023-05-09T15:29:57;368.85;;;348.70;;
11039;SDS011;5573;49.592;8.662;2023-05-09T15:32:46;387.67;;;366.10;;
11039;SDS011;5573;49.592;8.662;2023-05-09T15:35:34;391.25;;;369.70;;
11039;SDS011;5573;49.592;8.662;2023-05-09T15:38:22;424.23;;;400.17;;
11039;SDS011;5573;49.592;8.662;2023-05-09T15:41:12;385.98;;;364.40;;
11039;SDS011;5573;49.592;8.662;2023-05-09T15:44:00;409.17;;;385.83;;
11039;SDS011;5573;49.592;8.662;2023-05-09T15:46:48;441.77;;;416.10;;
11039;SDS011;5573;49.592;8.662;2023-05-09T15:49:36;451.27;;;425.75;;
11039;SDS011;5573;49.592;8.662;2023-05-09T15:52:24;477.30;;;449.70;;
11039;SDS011;5573;49.592;8.662;2023-05-09T15:55:13;466.80;;;439.58;;
11039;SDS011;5573;49.592;8.662;2023-05-09T15:58:03;475.75;;;448.30;;
11039;SDS011;5573;49.592;8.662;2023-05-09T16:00:51;489.98;;;461.05;;
11039;SDS011;5573;49.592;8.662;2023-05-09T16:03:39;478.17;;;450.58;;
11039;SDS011;5573;49.592;8.662;2023-05-09T16:06:29;493.63;;;465.80;;
11039;SDS011;5573;49.592;8.662;2023-05-09T16:09:18;487.40;;;459.80;;
11039;SDS011;5573;49.592;8.662;2023-05-09T16:12:06;454.40;;;429.05;;
11039;SDS011;5573;49.592;8.662;2023-05-09T16:14:56;464.02;;;437.08;;
11039;SDS011;5573;49.592;8.662;2023-05-09T16:17:44;516.25;;;486.15;;
11039;SDS011;5573;49.592;8.662;2023-05-09T16:20:32;489.95;;;461.02;;
11039;SDS011;5573;49.592;8.662;2023-05-09T16:23:21;484.52;;;456.40;;